Time;durP1;ratioP1;P1;durP2;ratioP2;P2;SDS_P1;SDS_P2;PMS_P1;PMS_P2;Temp;Humidity;BMP_temperature;BMP_pressure;BME280_temperature;BME280_humidity;BME280_pressure;Samples;Min_cycle;Max_cycle;Signal;HPM_P1;HPM_P2
2023/02/12 00:00:38;;;;;;;18.53;16.13;;;9.10;3.60;;;;;;5036322;28;20181;-82
2023/02/12 00:03:04;;;;;;;20.17;17.77;;;9.10;1.00;;;;;;5032384;28;20173;-82
2023/02/12 00:05:32;;;;;;;20.13;17.63;;;9.40;1.00;;;;;;5024505;28;20186;-84
2023/02/12 00:07:57;;;;;;;18.67;16.27;;;9.20;1.00;;;;;;5025140;28;20170;-84
2023/02/12 00:10:23;;;;;;;19.27;17.27;;;9.30;1.00;;;;;;5030516;28;20182;-85
2023/02/12 00:12:49;;;;;;;16.43;14.73;;;9.50;1.00;;;;;;5020548;28;20182;-83
2023/02/12 00:15:15;;;;;;;18.77;16.07;;;9.40;1.00;;;;;;5037498;28;20333;-82
2023/02/12 00:17:41;;;;;;;14.57;13.07;;;9.50;1.00;;;;;;5020070;28;20255;-87
2023/02/12 00:20:07;;;;;;;13.00;11.63;;;9.50;1.00;;;;;;5022406;28;20178;-84
2023/02/12 00:22:33;;;;;;;12.20;10.97;;;9.30;1.00;;;;;;5022890;28;20194;-83
2023/02/12 00:24:58;;;;;;;13.07;10.70;;;9.40;1.00;;;;;;5035256;28;20228;-87
2023/02/12 00:27:24;;;;;;;13.20;11.30;;;9.30;1.00;;;;;;5040176;28;20253;-86
2023/02/12 00:29:50;;;;;;;12.67;10.70;;;9.30;1.00;;;;;;5041131;28;20193;-86
2023/02/12 00:32:19;;;;;;;10.17;9.07;;;9.50;1.00;;;;;;5057233;28;20638;-85
2023/02/12 00:34:46;;;;;;;10.57;9.37;;;9.60;1.00;;;;;;5037755;28;20681;-85
2023/02/12 00:37:12;;;;;;;10.93;9.83;;;9.50;1.00;;;;;;5039873;28;20253;-86
2023/02/12 00:39:38;;;;;;;10.20;9.30;;;9.40;1.00;;;;;;5040465;28;20280;-85
2023/02/12 00:42:04;;;;;;;11.57;9.00;;;9.50;1.00;;;;;;5042512;28;20174;-86
2023/02/12 00:44:29;;;;;;;10.93;9.03;;;9.60;1.00;;;;;;5040696;28;20165;-85
2023/02/12 00:46:56;;;;;;;12.33;9.97;;;9.70;1.00;;;;;;5041956;28;20181;-85
2023/02/12 00:49:22;;;;;;;10.37;9.27;;;9.50;1.00;;;;;;5038659;28;20246;-88
2023/02/12 00:51:48;;;;;;;10.53;9.43;;;9.60;1.00;;;;;;5039759;28;20250;-86
2023/02/12 00:54:14;;;;;;;11.87;10.50;;;9.50;1.00;;;;;;5038224;28;20174;-84
2023/02/12 00:56:40;;;;;;;10.40;9.30;;;9.60;1.00;;;;;;5041256;28;20217;-79
2023/02/12 00:59:05;;;;;;;9.93;8.97;;;9.50;1.00;;;;;;5043259;28;20602;-88
2023/02/12 01:01:31;;;;;;;9.97;8.73;;;9.50;1.00;;;;;;5038696;28;20676;-82
2023/02/12 01:03:57;;;;;;;10.33;8.33;;;9.50;1.00;;;;;;5037025;28;20170;-82
2023/02/12 01:06:23;;;;;;;9.87;8.87;;;9.40;1.00;;;;;;5038881;28;20178;-85
2023/02/12 01:08:52;;;;;;;10.03;8.90;;;9.60;1.00;;;;;;5041788;28;20620;-88
2023/02/12 01:11:18;;;;;;;10.70;9.60;;;9.50;1.00;;;;;;5052503;28;20197;-80
2023/02/12 01:13:45;;;;;;;9.63;8.43;;;9.40;1.00;;;;;;5057163;28;20181;-80
2023/02/12 01:16:17;;;;;;;10.50;9.17;;;9.40;1.00;;;;;;5055058;28;20225;-80
2023/02/12 01:18:44;;;;;;;14.10;12.60;;;9.30;1.00;;;;;;5048806;28;20181;-84
2023/02/12 01:21:39;;;;;;;9.53;8.53;;;9.50;1.00;;;;;;5039399;28;20181;-84
2023/02/12 01:24:05;;;;;;;10.20;9.00;;;9.70;1.00;;;;;;5029233;28;20174;-86
2023/02/12 01:26:31;;;;;;;12.73;11.33;;;9.80;1.00;;;;;;5038794;28;20190;-85
2023/02/12 01:29:00;;;;;;;13.43;12.23;;;9.70;1.00;;;;;;5039023;28;20185;-82
2023/02/12 01:31:31;;;;;;;17.90;15.17;;;9.70;1.00;;;;;;5052612;28;20170;-85
2023/02/12 01:33:59;;;;;;;11.67;10.67;;;9.80;1.00;;;;;;5038045;28;20282;-83
2023/02/12 01:36:26;;;;;;;11.87;10.77;;;9.90;1.00;;;;;;5036708;28;20251;-85
2023/02/12 01:38:52;;;;;;;12.37;11.17;;;9.80;1.00;;;;;;5042918;28;20173;-86
2023/02/12 01:41:22;;;;;;;11.60;10.40;;;9.70;1.00;;;;;;5046549;28;20245;-81
2023/02/12 01:44:04;;;;;;;13.20;11.97;;;9.50;1.00;;;;;;5045704;28;20177;-83
2023/02/12 01:46:30;;;;;;;14.57;12.77;;;9.40;1.00;;;;;;5046102;28;20207;-87
2023/02/12 01:48:56;;;;;;;13.37;11.97;;;9.20;1.00;;;;;;5052303;28;20174;-78
2023/02/12 01:51:23;;;;;;;13.90;10.90;;;9.20;1.00;;;;;;5055269;28;20645;-80
2023/02/12 01:53:53;;;;;;;12.07;10.97;;;9.20;1.00;;;;;;5052335;28;20204;-80
2023/02/12 01:56:20;;;;;;;13.07;11.60;;;9.30;1.00;;;;;;5051846;28;20289;-82
2023/02/12 01:58:49;;;;;;;14.00;12.53;;;9.60;1.00;;;;;;5053255;28;20168;-81
2023/02/12 02:01:22;;;;;;;15.53;13.93;;;9.60;1.00;;;;;;5044071;28;20528;-84
2023/02/12 02:03:55;;;;;;;14.17;12.53;;;9.60;1.00;;;;;;5049519;28;20192;-81
2023/02/12 02:06:58;;;;;;;16.40;14.80;;;9.50;1.00;;;;;;5054288;28;20241;-80
2023/02/12 02:09:35;;;;;;;16.27;14.73;;;9.70;1.00;;;;;;5021751;28;20224;-86
2023/02/12 02:14:46;;;;;;;13.63;12.30;;;9.50;1.00;;;;;;5049161;28;20526;-83
2023/02/12 02:17:17;;;;;;;13.40;12.10;;;9.20;1.00;;;;;;5053106;28;20296;-84
2023/02/12 02:19:49;;;;;;;15.00;13.50;;;9.10;1.00;;;;;;5053222;28;20177;-81
2023/02/12 02:22:57;;;;;;;16.10;14.50;;;9.20;1.00;;;;;;5056835;28;20161;-81
2023/02/12 02:25:48;;;;;;;17.87;16.27;;;9.40;1.00;;;;;;5050121;28;20213;-86
2023/02/12 02:28:38;;;;;;;18.67;16.70;;;9.50;1.00;;;;;;5035256;28;20181;-81
2023/02/12 02:31:09;;;;;;;16.47;15.00;;;9.60;1.00;;;;;;5038224;28;20299;-81
2023/02/12 02:33:48;;;;;;;18.00;16.40;;;9.60;1.00;;;;;;5057650;28;20177;-82
2023/02/12 02:36:17;;;;;;;13.80;12.50;;;9.90;1.00;;;;;;5048692;28;20220;-81
2023/02/12 02:38:54;;;;;;;15.20;13.80;;;10.00;1.00;;;;;;5044559;28;20165;-82
2023/02/12 02:41:31;;;;;;;16.00;14.30;;;10.10;1.00;;;;;;5036004;28;20165;-85
2023/02/12 02:44:02;;;;;;;17.87;16.27;;;10.20;1.00;;;;;;5036685;28;20162;-85
2023/02/12 02:46:44;;;;;;;16.53;14.70;;;10.10;1.00;;;;;;5038634;28;20220;-85
2023/02/12 02:49:16;;;;;;;18.23;16.33;;;9.80;1.00;;;;;;5040408;28;20698;-86
2023/02/12 02:51:46;;;;;;;18.97;17.03;;;9.60;1.00;;;;;;5040125;28;20244;-83
2023/02/12 02:54:20;;;;;;;20.93;18.90;;;9.50;1.00;;;;;;5056232;28;20264;-83
2023/02/12 02:56:49;;;;;;;22.67;20.27;;;9.40;1.00;;;;;;5040078;28;20197;-81
2023/02/12 02:59:37;;;;;;;21.17;18.97;;;9.40;1.00;;;;;;5048716;28;20176;-82
2023/02/12 03:02:16;;;;;;;17.57;15.90;;;9.60;1.00;;;;;;5040630;28;20183;-86
2023/02/12 03:04:47;;;;;;;22.57;20.17;;;9.70;1.00;;;;;;5038011;28;20189;-83
2023/02/12 03:07:22;;;;;;;22.20;20.00;;;9.70;1.00;;;;;;5037677;28;20257;-85
2023/02/12 03:10:20;;;;;;;20.27;18.27;;;9.90;1.00;;;;;;5037121;28;20264;-86
2023/02/12 03:12:54;;;;;;;17.63;15.93;;;10.10;1.00;;;;;;5047702;28;20243;-80
2023/02/12 03:15:35;;;;;;;17.70;16.10;;;10.20;1.00;;;;;;5040322;28;20207;-86
2023/02/12 03:18:07;;;;;;;20.17;18.17;;;10.20;1.00;;;;;;5039401;28;20174;-82
2023/02/12 03:20:40;;;;;;;21.30;19.23;;;10.30;1.00;;;;;;5030736;28;20174;-86
2023/02/12 03:23:12;;;;;;;20.37;18.37;;;10.40;1.00;;;;;;5022917;28;20200;-81
2023/02/12 03:25:48;;;;;;;22.93;20.73;;;10.40;1.00;;;;;;5020239;28;20201;-82
2023/02/12 03:28:22;;;;;;;23.97;21.37;;;10.50;1.00;;;;;;5018632;28;20209;-86
2023/02/12 03:31:15;;;;;;;25.60;23.00;;;10.50;1.00;;;;;;5019589;28;20170;-84
2023/02/12 03:33:59;;;;;;;20.17;18.07;;;10.30;1.00;;;;;;5041078;28;20238;-82
2023/02/12 03:37:11;;;;;;;18.93;17.13;;;10.10;1.00;;;;;;5040195;28;20298;-82
2023/02/12 03:39:56;;;;;;;18.17;16.37;;;9.80;1.00;;;;;;5046392;28;20270;-81
2023/02/12 03:43:00;;;;;;;20.37;18.27;;;9.70;1.00;;;;;;5017914;28;20176;-85
2023/02/12 03:46:11;;;;;;;23.83;21.43;;;9.80;1.00;;;;;;5016639;28;20195;-84
2023/02/12 03:48:55;;;;;;;22.33;19.93;;;9.70;1.00;;;;;;5017847;28;20284;-86
2023/02/12 03:51:27;;;;;;;23.60;20.40;;;9.70;1.00;;;;;;5019298;28;20170;-86
2023/02/12 03:53:54;;;;;;;16.60;15.00;;;9.50;1.00;;;;;;5016520;28;20229;-85
2023/02/12 03:56:49;;;;;;;16.80;15.20;;;9.60;1.00;;;;;;5032764;28;20348;-84
2023/02/12 03:59:15;;;;;;;18.77;16.77;;;9.70;1.00;;;;;;5012434;28;20178;-86
2023/02/12 04:01:41;;;;;;;21.07;18.87;;;9.90;1.00;;;;;;5017992;28;20225;-87
2023/02/12 04:04:08;;;;;;;21.00;18.70;;;10.00;1.00;;;;;;5015725;28;20658;-84
2023/02/12 04:06:34;;;;;;;18.37;16.47;;;10.10;1.00;;;;;;5032558;28;20701;-85
2023/02/12 04:09:10;;;;;;;19.07;17.17;;;10.30;1.00;;;;;;5017346;28;20212;-85
2023/02/12 04:11:45;;;;;;;19.20;17.40;;;10.20;1.00;;;;;;5018190;28;20177;-86
2023/02/12 04:14:34;;;;;;;14.97;13.53;;;10.20;1.00;;;;;;5017379;28;20560;-80
2023/02/12 04:17:17;;;;;;;16.23;14.73;;;10.20;1.00;;;;;;5015636;28;20337;-82
2023/02/12 04:20:21;;;;;;;17.60;15.87;;;10.20;1.00;;;;;;5021461;28;20266;-81
2023/02/12 04:22:58;;;;;;;17.37;15.73;;;10.20;1.00;;;;;;5035374;28;20344;-80
2023/02/12 04:25:42;;;;;;;19.63;17.73;;;10.30;1.00;;;;;;5028698;28;20190;-81
2023/02/12 04:28:34;;;;;;;16.80;15.20;;;10.30;1.00;;;;;;5017439;28;20170;-81
2023/02/12 04:31:25;;;;;;;16.70;15.10;;;10.40;1.00;;;;;;5015154;28;20244;-85
2023/02/12 04:34:20;;;;;;;22.93;20.63;;;10.50;1.00;;;;;;5017179;28;20237;-82
2023/02/12 04:36:53;;;;;;;20.03;17.83;;;10.50;1.00;;;;;;5036378;28;20197;-84
2023/02/12 04:39:24;;;;;;;17.23;15.53;;;10.30;1.00;;;;;;5034822;28;20182;-81
2023/02/12 04:41:51;;;;;;;19.60;17.67;;;10.10;1.00;;;;;;5023779;28;20258;-84
2023/02/12 04:44:28;;;;;;;16.87;15.23;;;9.80;1.00;;;;;;5035276;28;20183;-80
2023/02/12 04:46:53;;;;;;;17.70;15.93;;;9.80;1.00;;;;;;5031226;28;20193;-80
2023/02/12 04:49:20;;;;;;;21.57;19.47;;;9.90;1.00;;;;;;5022054;28;20158;-83
2023/02/12 04:51:49;;;;;;;20.57;18.57;;;9.70;1.00;;;;;;5033436;28;20179;-80
2023/02/12 04:54:16;;;;;;;17.40;15.40;;;9.70;1.00;;;;;;5023779;28;20232;-84
2023/02/12 04:56:42;;;;;;;20.67;18.47;;;9.70;1.00;;;;;;5027327;28;20210;-84
2023/02/12 04:59:08;;;;;;;22.00;19.80;;;9.70;1.00;;;;;;5015605;28;20584;-88
2023/02/12 05:01:36;;;;;;;22.07;19.60;;;9.60;1.00;;;;;;5038203;28;20201;-79
2023/02/12 05:04:04;;;;;;;18.57;16.63;;;9.60;1.00;;;;;;5032496;28;20177;-84
2023/02/12 05:06:30;;;;;;;22.90;20.50;;;9.60;1.00;;;;;;5021900;28;20182;-84
2023/02/12 05:09:13;;;;;;;19.47;17.63;;;9.80;1.00;;;;;;5023630;28;20201;-81
2023/02/12 05:11:38;;;;;;;24.40;22.00;;;10.00;1.00;;;;;;5019632;28;20204;-83
2023/02/12 05:14:04;;;;;;;21.00;18.97;;;9.90;1.00;;;;;;5014781;28;20175;-87
2023/02/12 05:16:30;;;;;;;21.73;19.63;;;9.50;1.00;;;;;;5014701;28;20276;-88
2023/02/12 05:18:56;;;;;;;18.83;16.93;;;9.60;1.00;;;;;;5017326;28;20674;-86
2023/02/12 05:21:21;;;;;;;18.80;17.00;;;9.30;1.00;;;;;;5014883;28;20201;-81
2023/02/12 05:23:47;;;;;;;19.23;17.33;;;9.50;1.00;;;;;;5016724;28;20175;-85
2023/02/12 05:26:16;;;;;;;18.07;16.17;;;9.40;1.00;;;;;;5015316;28;20226;-85
2023/02/12 05:28:42;;;;;;;17.73;16.03;;;9.50;1.00;;;;;;5016567;28;20181;-85
2023/02/12 05:31:10;;;;;;;22.50;20.20;;;9.50;1.00;;;;;;5016306;28;20179;-82
2023/02/12 05:33:35;;;;;;;24.33;21.77;;;9.70;1.00;;;;;;5015784;28;20180;-85
2023/02/12 05:36:05;;;;;;;27.63;24.93;;;9.90;1.00;;;;;;5017694;28;20555;-85
2023/02/12 05:38:31;;;;;;;29.10;26.20;;;10.00;1.00;;;;;;5013858;28;20228;-85
2023/02/12 05:41:18;;;;;;;29.30;26.30;;;10.00;1.00;;;;;;5016430;28;20179;-86
2023/02/12 05:43:44;;;;;;;31.23;27.30;;;9.90;1.00;;;;;;5016367;28;20181;-84
2023/02/12 05:46:10;;;;;;;26.60;23.90;;;9.90;1.00;;;;;;5015305;28;20644;-80
2023/02/12 05:48:37;;;;;;;23.50;21.07;;;9.60;1.00;;;;;;5014230;28;20571;-83
2023/02/12 05:51:07;;;;;;;27.70;25.00;;;9.30;1.00;;;;;;5015856;28;20633;-82
2023/02/12 05:53:38;;;;;;;22.30;20.00;;;9.30;1.00;;;;;;5019847;28;20178;-85
2023/02/12 05:56:10;;;;;;;29.73;26.57;;;9.40;1.00;;;;;;5023796;28;20237;-81
2023/02/12 05:58:37;;;;;;;28.47;25.43;;;9.50;1.00;;;;;;5016210;28;20170;-81
2023/02/12 06:01:09;;;;;;;22.47;20.13;;;9.50;1.00;;;;;;5015027;28;20178;-82
2023/02/12 06:03:35;;;;;;;23.87;21.37;;;9.40;1.00;;;;;;5015240;28;20170;-87
2023/02/12 06:06:00;;;;;;;23.20;20.70;;;9.30;1.00;;;;;;5014612;28;20178;-83
2023/02/12 06:08:26;;;;;;;23.47;21.00;;;9.20;1.00;;;;;;5014601;28;20646;-85
2023/02/12 06:10:52;;;;;;;23.73;21.23;;;9.20;1.00;;;;;;5015098;28;20185;-86
2023/02/12 06:13:18;;;;;;;22.87;20.43;;;9.20;1.00;;;;;;5017494;28;20177;-84
2023/02/12 06:15:43;;;;;;;23.07;20.77;;;9.20;1.00;;;;;;5018680;28;20206;-85
2023/02/12 06:18:09;;;;;;;23.57;21.13;;;9.30;1.00;;;;;;5016978;28;20193;-80
2023/02/12 06:20:38;;;;;;;25.50;22.83;;;9.30;1.00;;;;;;5020978;28;20205;-80
2023/02/12 06:23:04;;;;;;;23.27;20.97;;;9.30;1.00;;;;;;5030457;28;20165;-79
2023/02/12 06:25:31;;;;;;;22.90;20.60;;;9.30;1.00;;;;;;5048217;28;20693;-78
2023/02/12 06:27:56;;;;;;;23.77;21.13;;;9.40;1.00;;;;;;5032435;28;20170;-81
2023/02/12 06:30:22;;;;;;;24.93;22.17;;;9.50;1.00;;;;;;5035675;28;20173;-81
2023/02/12 06:32:51;;;;;;;27.03;24.03;;;9.50;1.00;;;;;;5052301;28;20185;-81
2023/02/12 06:35:16;;;;;;;24.80;21.73;;;9.50;1.00;;;;;;5034095;28;20202;-81
2023/02/12 06:37:44;;;;;;;25.77;23.27;;;9.50;1.00;;;;;;5024937;28;20654;-80
2023/02/12 06:40:11;;;;;;;22.90;20.57;;;9.30;1.00;;;;;;5021617;28;20615;-85
2023/02/12 06:42:37;;;;;;;24.00;21.50;;;9.30;1.00;;;;;;5038170;28;20194;-83
2023/02/12 06:45:03;;;;;;;23.40;20.63;;;9.50;1.00;;;;;;5017745;28;20175;-81
2023/02/12 06:47:28;;;;;;;25.00;22.43;;;9.50;1.00;;;;;;5018834;28;20171;-83
2023/02/12 06:49:54;;;;;;;24.23;21.63;;;9.60;1.00;;;;;;5035835;28;20155;-80
2023/02/12 06:52:21;;;;;;;21.67;18.90;;;9.60;1.00;;;;;;5030680;28;20182;-80
2023/02/12 06:54:50;;;;;;;27.53;22.60;;;9.50;1.00;;;;;;5021221;28;20166;-82
2023/02/12 06:57:15;;;;;;;24.70;20.47;;;9.40;1.00;;;;;;5030997;28;20190;-87
2023/02/12 06:59:41;;;;;;;24.10;21.50;;;9.40;1.00;;;;;;5015819;28;20540;-85
2023/02/12 07:02:09;;;;;;;24.50;21.90;;;9.50;1.00;;;;;;5016177;28;20704;-86
2023/02/12 07:04:37;;;;;;;24.47;20.80;;;9.60;1.00;;;;;;5019743;28;20216;-85
2023/02/12 07:07:04;;;;;;;24.07;21.00;;;9.60;1.00;;;;;;5020128;28;20170;-86
2023/02/12 07:09:31;;;;;;;24.87;21.73;;;9.80;1.00;;;;;;5052076;28;20170;-82
2023/02/12 07:11:58;;;;;;;24.60;22.03;;;9.80;1.00;;;;;;5028256;28;20258;-80
2023/02/12 07:14:25;;;;;;;25.73;22.40;;;10.00;1.00;;;;;;5021857;28;20167;-85
2023/02/12 07:16:52;;;;;;;23.10;20.60;;;9.70;1.00;;;;;;5015953;28;20206;-80
2023/02/12 07:19:18;;;;;;;25.50;22.77;;;9.80;1.00;;;;;;5016709;28;20174;-82
2023/02/12 07:21:43;;;;;;;25.67;22.50;;;9.80;1.00;;;;;;5015309;28;20253;-84
2023/02/12 07:24:13;;;;;;;26.37;23.53;;;9.90;1.00;;;;;;5014211;28;20173;-82
2023/02/12 07:26:40;;;;;;;25.50;22.80;;;9.90;1.00;;;;;;5039775;28;20200;-80
2023/02/12 07:29:05;;;;;;;27.00;24.10;;;10.20;1.00;;;;;;5050800;28;20622;-81
2023/02/12 07:31:38;;;;;;;27.07;24.13;;;10.00;1.00;;;;;;5050355;28;20165;-83
2023/02/12 07:34:03;;;;;;;26.47;23.67;;;9.90;1.00;;;;;;5039706;28;20190;-86
2023/02/12 07:36:31;;;;;;;26.00;23.20;;;9.80;1.00;;;;;;5039842;28;20217;-85
2023/02/12 07:38:58;;;;;;;29.43;23.10;;;9.80;1.00;;;;;;5039993;28;20165;-83
2023/02/12 07:41:25;;;;;;;24.30;21.77;;;9.80;1.00;;;;;;5036906;28;20579;-82
2023/02/12 07:44:03;;;;;;;27.87;24.67;;;9.90;1.00;;;;;;5038971;28;20680;-83
2023/02/12 07:46:31;;;;;;;28.23;25.13;;;9.90;1.00;;;;;;5037015;28;20197;-86
2023/02/12 07:48:59;;;;;;;26.50;23.30;;;9.80;1.00;;;;;;5040344;28;20658;-84
2023/02/12 07:51:26;;;;;;;27.27;24.33;;;9.50;1.00;;;;;;5038344;28;20729;-86
2023/02/12 07:53:52;;;;;;;29.37;24.80;;;9.40;1.00;;;;;;5039406;28;20169;-84
2023/02/12 07:56:20;;;;;;;26.80;23.60;;;9.50;1.00;;;;;;5045305;28;20233;-84
2023/02/12 07:58:49;;;;;;;29.57;25.23;;;9.50;1.00;;;;;;5053117;28;20149;-82
2023/02/12 08:01:19;;;;;;;27.00;24.20;;;9.70;1.00;;;;;;5056215;28;20162;-85
2023/02/12 08:03:46;;;;;;;29.77;25.60;;;9.90;1.00;;;;;;5056551;28;20174;-83
2023/02/12 08:06:16;;;;;;;32.30;25.87;;;10.00;1.00;;;;;;5051344;28;20254;-84
2023/02/12 08:08:42;;;;;;;27.93;25.03;;;10.20;1.00;;;;;;5044277;28;20158;-82
2023/02/12 08:11:09;;;;;;;29.07;25.73;;;10.20;1.00;;;;;;5035458;28;20269;-84
2023/02/12 08:13:36;;;;;;;29.40;25.30;;;10.10;1.00;;;;;;5036256;28;20178;-84
2023/02/12 08:16:04;;;;;;;28.27;24.03;;;10.20;1.00;;;;;;5037010;28;20283;-86
2023/02/12 08:18:31;;;;;;;28.43;25.27;;;10.10;1.00;;;;;;5036982;28;20170;-82
2023/02/12 08:21:07;;;;;;;32.57;27.40;;;10.10;1.00;;;;;;5036717;28;20182;-82
2023/02/12 08:23:33;;;;;;;31.13;26.40;;;9.60;1.00;;;;;;5036914;28;20240;-85
2023/02/12 08:26:14;;;;;;;31.37;27.40;;;9.50;1.00;;;;;;5036652;28;20261;-81
2023/02/12 08:28:45;;;;;;;28.70;25.67;;;9.60;1.00;;;;;;5039020;28;20161;-85
2023/02/12 08:31:18;;;;;;;28.77;24.77;;;9.60;1.00;;;;;;5037297;28;20178;-83
2023/02/12 08:33:48;;;;;;;27.70;24.47;;;9.40;1.00;;;;;;5042739;28;20162;-84
2023/02/12 08:36:17;;;;;;;26.77;23.97;;;9.50;1.00;;;;;;5040702;28;20220;-84
2023/02/12 08:38:44;;;;;;;26.53;23.70;;;9.50;1.00;;;;;;5037682;28;20177;-84
2023/02/12 08:41:30;;;;;;;27.13;24.20;;;9.50;1.00;;;;;;5037529;28;20202;-85
2023/02/12 08:43:58;;;;;;;27.40;24.43;;;9.30;1.00;;;;;;5036479;28;20572;-86
2023/02/12 08:46:27;;;;;;;30.50;25.00;;;9.40;1.00;;;;;;5037697;28;20165;-88
2023/02/12 08:48:55;;;;;;;28.33;23.60;;;9.50;1.00;;;;;;5038598;28;20220;-87
2023/02/12 08:51:23;;;;;;;21.37;19.03;;;9.60;1.00;;;;;;5039391;28;20586;-83
2023/02/12 08:53:53;;;;;;;24.13;21.53;;;9.30;1.00;;;;;;5056778;28;20158;-83
2023/02/12 08:56:19;;;;;;;24.77;21.13;;;9.30;1.00;;;;;;5036765;28;20216;-82
2023/02/12 08:58:45;;;;;;;24.27;19.70;;;9.20;1.00;;;;;;5022219;28;20210;-86
2023/02/12 09:01:16;;;;;;;26.43;22.37;;;9.20;1.00;;;;;;5032197;28;20269;-83
2023/02/12 09:03:44;;;;;;;28.17;22.83;;;9.30;1.00;;;;;;5016293;28;20170;-88
2023/02/12 09:06:11;;;;;;;31.37;23.87;;;9.40;1.00;;;;;;5018951;28;20216;-86
2023/02/12 09:08:38;;;;;;;28.03;22.97;;;9.70;1.00;;;;;;5028513;28;20239;-84
2023/02/12 09:11:12;;;;;;;32.27;24.57;;;9.90;1.00;;;;;;5038733;28;20533;-81
2023/02/12 09:13:38;;;;;;;27.73;22.80;;;9.90;1.00;;;;;;5038133;28;20280;-85
2023/02/12 09:16:05;;;;;;;25.47;22.77;;;10.00;1.00;;;;;;5056717;28;20215;-84
2023/02/12 09:18:35;;;;;;;24.97;22.20;;;10.10;1.00;;;;;;5042128;28;20177;-90
2023/02/12 09:21:10;;;;;;;27.30;21.33;;;10.00;1.00;;;;;;5046472;28;20231;-87
2023/02/12 09:23:36;;;;;;;26.40;20.83;;;10.10;1.00;;;;;;5072720;28;20184;-84
2023/02/12 09:26:14;;;;;;;24.37;21.47;;;10.20;1.00;;;;;;5056867;28;20229;-88
2023/02/12 09:28:43;;;;;;;25.93;21.87;;;10.10;1.00;;;;;;5055267;28;20268;-84
2023/02/12 09:31:25;;;;;;;25.90;20.90;;;10.20;1.00;;;;;;5034834;28;20235;-83
2023/02/12 09:34:15;;;;;;;25.17;19.73;;;10.30;1.00;;;;;;5037034;28;20240;-88
2023/02/12 09:36:49;;;;;;;25.23;21.07;;;10.40;1.00;;;;;;5032253;28;20288;-85
2023/02/12 09:39:15;;;;;;;26.77;20.20;;;10.40;1.00;;;;;;5016980;28;20193;-82
2023/02/12 09:41:51;;;;;;;27.60;21.17;;;10.40;1.00;;;;;;5022634;28;20181;-86
2023/02/12 09:44:37;;;;;;;24.03;20.30;;;10.40;1.00;;;;;;5044566;28;20233;-87
2023/02/12 09:47:23;;;;;;;22.80;19.77;;;10.40;1.00;;;;;;5017949;28;20201;-80
2023/02/12 09:49:49;;;;;;;24.73;20.60;;;10.50;1.00;;;;;;5038160;28;20197;-79
2023/02/12 09:52:20;;;;;;;24.63;21.43;;;10.70;1.00;;;;;;5036708;28;20238;-82
2023/02/12 09:54:48;;;;;;;24.03;20.07;;;10.70;1.00;;;;;;5027161;28;20281;-86
2023/02/12 09:57:24;;;;;;;26.63;20.53;;;10.70;1.00;;;;;;5019878;28;20175;-84
2023/02/12 10:00:03;;;;;;;24.50;20.83;;;10.80;1.00;;;;;;5019277;28;20205;-85
2023/02/12 10:02:29;;;;;;;24.03;19.83;;;10.90;1.00;;;;;;5015161;28;20193;-86
2023/02/12 10:04:55;;;;;;;24.60;20.67;;;11.00;1.00;;;;;;5026996;28;20163;-83
2023/02/12 10:07:46;;;;;;;24.00;21.30;;;11.00;1.00;;;;;;5044661;28;20189;-85
2023/02/12 10:10:51;;;;;;;24.30;19.87;;;11.00;1.00;;;;;;5040101;28;20165;-81
2023/02/12 10:13:48;;;;;;;23.53;20.60;;;11.00;1.00;;;;;;5053602;28;20261;-82
2023/02/12 10:16:31;;;;;;;24.63;20.07;;;11.10;1.00;;;;;;5039485;28;20209;-82
2023/02/12 10:19:11;;;;;;;25.83;20.30;;;11.00;1.00;;;;;;5026722;28;20680;-80
2023/02/12 10:22:04;;;;;;;26.97;21.13;;;10.80;1.00;;;;;;5017704;28;20622;-82
2023/02/12 10:24:42;;;;;;;26.03;23.23;;;10.60;1.00;;;;;;5044492;28;20233;-86
2023/02/12 10:27:14;;;;;;;28.13;22.97;;;10.70;1.00;;;;;;5034654;28;20193;-80
2023/02/12 10:29:43;;;;;;;25.93;23.07;;;10.90;1.00;;;;;;5016340;28;20634;-82
2023/02/12 10:32:24;;;;;;;26.43;22.77;;;10.60;1.00;;;;;;5035914;28;20174;-84
2023/02/12 10:34:51;;;;;;;26.73;23.20;;;10.60;1.00;;;;;;5016038;28;20236;-84
2023/02/12 10:37:33;;;;;;;31.10;24.03;;;10.60;1.00;;;;;;5018468;28;20194;-81
2023/02/12 10:40:16;;;;;;;26.67;23.73;;;10.70;1.00;;;;;;5017472;28;20185;-87
2023/02/12 10:42:46;;;;;;;30.83;25.07;;;10.20;1.00;;;;;;5015950;28;20185;-85
2023/02/12 10:45:17;;;;;;;32.33;26.77;;;10.10;1.00;;;;;;5015112;28;20174;-87
2023/02/12 10:47:45;;;;;;;30.93;25.60;;;9.90;1.00;;;;;;5016068;28;20208;-84
2023/02/12 10:50:58;;;;;;;27.23;23.70;;;9.90;1.00;;;;;;5019514;28;20162;-86
2023/02/12 10:53:31;;;;;;;26.37;20.83;;;9.90;1.00;;;;;;4995582;28;20190;-87
2023/02/12 10:56:26;;;;;;;30.93;22.20;;;9.80;1.00;;;;;;5018280;28;20194;-83
2023/02/12 10:58:58;;;;;;;28.17;24.03;;;9.60;1.00;;;;;;5012224;28;20186;-86
2023/02/12 11:01:32;;;;;;;28.20;22.53;;;9.60;1.00;;;;;;5016392;28;20426;-85
2023/02/12 11:03:59;;;;;;;28.53;21.67;;;9.80;1.00;;;;;;5014501;28;20217;-84
2023/02/12 11:06:30;;;;;;;31.20;22.83;;;9.70;1.00;;;;;;5024864;28;20224;-82
2023/02/12 11:08:58;;;;;;;26.87;22.53;;;9.70;1.00;;;;;;5025641;28;20569;-83
2023/02/12 11:11:26;;;;;;;27.90;23.13;;;9.80;1.00;;;;;;5026872;28;20540;-84
2023/02/12 11:14:05;;;;;;;28.70;22.97;;;9.90;1.00;;;;;;5040985;28;20580;-82
2023/02/12 11:16:31;;;;;;;29.93;23.73;;;10.00;1.00;;;;;;5027069;28;20202;-82
2023/02/12 11:19:03;;;;;;;25.97;21.27;;;10.10;1.00;;;;;;5031670;28;20430;-84
2023/02/12 11:21:31;;;;;;;23.03;20.53;;;10.00;1.00;;;;;;5044694;28;20194;-83
2023/02/12 11:24:17;;;;;;;26.10;21.03;;;10.00;1.00;;;;;;5049413;28;20224;-87
2023/02/12 11:26:44;;;;;;;26.27;21.70;;;9.80;1.00;;;;;;5042641;28;20186;-83
2023/02/12 11:29:23;;;;;;;27.13;21.67;;;9.80;1.00;;;;;;5049913;28;20177;-83
2023/02/12 11:32:07;;;;;;;27.07;20.90;;;9.70;1.00;;;;;;5034510;28;20155;-84
2023/02/12 11:34:36;;;;;;;28.00;20.67;;;9.50;1.00;;;;;;5051269;28;20205;-84
2023/02/12 11:37:03;;;;;;;24.20;20.97;;;9.40;1.00;;;;;;5053937;28;20274;-88
2023/02/12 11:39:37;;;;;;;27.53;21.47;;;9.40;1.00;;;;;;5047544;28;20229;-83
2023/02/12 11:42:23;;;;;;;27.33;20.83;;;9.50;1.00;;;;;;5048529;28;20178;-83
2023/02/12 11:44:55;;;;;;;28.10;21.07;;;9.50;1.00;;;;;;5041119;28;20174;-87
2023/02/12 11:47:28;;;;;;;26.63;21.73;;;9.60;1.00;;;;;;5040234;28;20648;-88
2023/02/12 11:49:59;;;;;;;28.93;21.97;;;9.50;1.00;;;;;;5057208;28;20193;-87
2023/02/12 11:52:28;;;;;;;29.40;21.73;;;9.40;1.00;;;;;;5057414;28;20173;-86
2023/02/12 11:55:00;;;;;;;25.90;20.03;;;9.50;1.00;;;;;;5058527;28;20178;-83
2023/02/12 11:57:47;;;;;;;25.00;20.27;;;9.50;1.00;;;;;;5033533;28;20174;-83
2023/02/12 12:00:59;;;;;;;28.87;20.93;;;9.40;1.00;;;;;;5039719;28;20166;-86
2023/02/12 12:03:37;;;;;;;24.20;19.77;;;9.40;1.00;;;;;;5044416;28;20188;-88
2023/02/12 12:06:31;;;;;;;26.63;21.03;;;9.60;1.00;;;;;;5026778;28;20184;-85
2023/02/12 12:09:19;;;;;;;26.20;20.90;;;9.50;1.00;;;;;;5019811;28;20202;-84
2023/02/12 12:11:58;;;;;;;27.07;20.00;;;9.50;1.00;;;;;;5021606;28;20177;-83
2023/02/12 12:20:37;;;;;;;23.27;18.60;;;9.70;1.00;;;;;;5034818;28;20204;-81
2023/02/12 12:23:17;;;;;;;24.80;20.23;;;9.90;1.00;;;;;;5015325;28;20212;-84
2023/02/12 12:25:49;;;;;;;24.80;19.60;;;10.00;1.00;;;;;;5016410;28;20213;-80
2023/02/12 12:28:42;;;;;;;21.33;18.33;;;10.10;1.00;;;;;;5021306;28;20174;-85
2023/02/12 12:31:35;;;;;;;24.90;18.57;;;9.90;1.00;;;;;;5024735;28;20185;-84
2023/02/12 12:34:27;;;;;;;23.07;17.80;;;9.90;1.00;;;;;;5019406;28;20170;-86
2023/02/12 12:37:08;;;;;;;27.23;18.03;;;9.90;1.00;;;;;;5018370;28;20321;-85
2023/02/12 12:39:46;;;;;;;21.73;16.33;;;10.10;1.00;;;;;;5033065;28;20217;-83
2023/02/12 12:42:30;;;;;;;19.70;16.47;;;10.00;1.00;;;;;;5017873;28;20166;-87
2023/02/12 12:45:24;;;;;;;19.43;16.67;;;9.90;1.00;;;;;;5025472;28;20162;-85
2023/02/12 12:48:21;;;;;;;19.27;16.50;;;9.80;1.00;;;;;;5032830;28;20167;-86
2023/02/12 12:51:30;;;;;;;20.63;17.17;;;9.90;1.00;;;;;;5034499;28;20225;-82
2023/02/12 12:54:28;;;;;;;20.53;16.83;;;9.80;1.00;;;;;;5036399;28;20200;-85
2023/02/12 12:57:18;;;;;;;20.30;16.53;;;9.80;1.00;;;;;;5027978;28;20204;-84
2023/02/12 13:00:25;;;;;;;23.87;17.77;;;9.60;1.00;;;;;;5030084;28;20202;-85
2023/02/12 13:03:04;;;;;;;19.67;16.97;;;9.50;1.00;;;;;;4999254;28;20186;-86
2023/02/12 13:06:11;;;;;;;22.70;16.83;;;9.40;1.00;;;;;;5003106;28;20564;-87
2023/02/12 13:09:01;;;;;;;22.87;17.47;;;9.60;1.00;;;;;;5026303;28;20750;-87
2023/02/12 13:12:06;;;;;;;21.17;16.17;;;9.60;1.00;;;;;;5021347;28;20707;-86
2023/02/12 13:14:54;;;;;;;19.47;14.90;;;9.50;1.00;;;;;;5042567;28;20193;-85
2023/02/12 13:17:44;;;;;;;18.67;15.33;;;9.60;1.00;;;;;;5046877;28;20193;-84
2023/02/12 13:20:14;;;;;;;18.17;14.97;;;9.60;1.00;;;;;;5032495;28;20157;-87
2023/02/12 13:22:58;;;;;;;21.23;15.67;;;9.60;1.00;;;;;;5037788;28;20163;-85
2023/02/12 13:25:37;;;;;;;18.40;15.80;;;9.70;1.00;;;;;;5038897;28;20196;-83
2023/02/12 13:28:08;;;;;;;18.33;14.13;;;9.70;1.00;;;;;;5037906;28;20169;-86